Time;durP1;ratioP1;P1;durP2;ratioP2;P2;SDS_P1;SDS_P2;PMS_P1;PMS_P2;Temp;Humidity;BMP_temperature;BMP_pressure;BME280_temperature;BME280_humidity;BME280_pressure;Samples;Min_cycle;Max_cycle;Signal;HPM_P1;HPM_P2
2020/12/04 00:00:23;;;;;;;4.88;3.00;;;3.00;99.90;;;;;;5065171;28;20031;-80
2020/12/04 00:02:48;;;;;;;10.35;4.00;;;3.00;99.90;;;;;;5065193;28;20497;-81
2020/12/04 00:05:14;;;;;;;9.63;5.15;;;3.00;99.90;;;;;;5065354;28;20457;-78
2020/12/04 00:07:40;;;;;;;3.97;2.35;;;3.00;99.90;;;;;;5063864;28;20044;-79
2020/12/04 00:10:06;;;;;;;12.00;3.65;;;3.00;99.90;;;;;;5064029;28;20033;-79
2020/12/04 00:12:31;;;;;;;4.72;2.22;;;3.00;99.90;;;;;;5063747;28;20059;-79
2020/12/04 00:14:57;;;;;;;10.10;5.13;;;3.00;99.90;;;;;;5063717;28;20025;-81
2020/12/04 00:17:23;;;;;;;5.47;2.85;;;3.00;99.90;;;;;;5065163;28;20112;-81
2020/12/04 00:19:48;;;;;;;9.98;4.18;;;3.00;99.90;;;;;;5063776;28;20028;-80
2020/12/04 00:22:14;;;;;;;7.95;4.18;;;2.90;99.90;;;;;;5063926;28;20021;-79
2020/12/04 00:24:40;;;;;;;6.57;3.90;;;2.90;99.90;;;;;;5065091;28;20108;-77
2020/12/04 00:27:05;;;;;;;6.18;2.50;;;2.90;99.90;;;;;;5063859;28;20021;-78
2020/12/04 00:29:31;;;;;;;6.70;3.05;;;2.90;99.90;;;;;;5063575;28;20021;-78
2020/12/04 00:31:57;;;;;;;9.27;4.15;;;2.90;99.90;;;;;;5063594;28;20086;-81
2020/12/04 00:34:24;;;;;;;10.07;3.78;;;2.90;99.90;;;;;;5065011;28;20050;-84
2020/12/04 00:36:51;;;;;;;7.13;4.13;;;2.90;99.90;;;;;;5064892;28;20028;-84
2020/12/04 00:39:16;;;;;;;3.95;2.38;;;2.90;99.90;;;;;;5064557;28;20844;-81
2020/12/04 00:41:44;;;;;;;8.40;4.22;;;2.80;99.90;;;;;;5063959;28;20017;-82
2020/12/04 00:44:10;;;;;;;7.53;3.85;;;2.80;99.90;;;;;;5063623;28;20033;-81
2020/12/04 00:46:36;;;;;;;8.35;4.32;;;2.80;99.90;;;;;;5063800;28;20033;-81
2020/12/04 00:49:01;;;;;;;6.95;3.90;;;2.80;99.90;;;;;;5063438;28;20031;-80
2020/12/04 00:51:27;;;;;;;6.38;2.92;;;2.70;99.90;;;;;;5063199;28;20048;-80
2020/12/04 00:53:54;;;;;;;4.95;3.40;;;2.70;99.90;;;;;;5063187;28;20029;-77
2020/12/04 00:56:21;;;;;;;4.93;2.78;;;2.70;99.90;;;;;;5064651;28;20080;-78
2020/12/04 00:58:49;;;;;;;5.05;2.45;;;2.70;99.90;;;;;;5064782;28;20021;-81
2020/12/04 01:01:15;;;;;;;15.82;2.85;;;2.70;99.90;;;;;;5063448;28;20021;-81
2020/12/04 01:03:41;;;;;;;9.10;3.85;;;2.70;99.90;;;;;;5063181;28;20041;-79
2020/12/04 01:06:10;;;;;;;11.35;2.90;;;2.70;99.90;;;;;;5063259;28;20060;-82
2020/12/04 01:08:36;;;;;;;6.70;2.78;;;2.70;99.90;;;;;;5063318;28;20036;-79
2020/12/04 01:11:02;;;;;;;7.13;4.18;;;2.70;99.90;;;;;;5063197;28;20017;-82
2020/12/04 01:13:28;;;;;;;5.18;3.03;;;2.70;99.90;;;;;;5064658;28;20025;-79
2020/12/04 01:15:53;;;;;;;6.50;3.45;;;2.80;99.90;;;;;;5063988;28;20028;-79
2020/12/04 01:18:19;;;;;;;4.47;3.25;;;2.80;99.90;;;;;;5064188;28;20027;-78
2020/12/04 01:20:44;;;;;;;7.28;2.40;;;2.80;99.90;;;;;;5063280;28;20024;-78
2020/12/04 01:23:10;;;;;;;8.82;4.53;;;2.80;99.90;;;;;;5064297;28;20112;-80
2020/12/04 01:25:35;;;;;;;8.00;3.20;;;2.80;99.90;;;;;;5063159;28;20037;-79
2020/12/04 01:28:01;;;;;;;7.95;3.90;;;2.80;99.90;;;;;;5062874;28;20075;-84
2020/12/04 01:30:26;;;;;;;4.38;2.47;;;2.90;99.90;;;;;;5063030;28;21102;-78
2020/12/04 01:32:52;;;;;;;7.38;3.88;;;2.80;99.90;;;;;;5063277;28;20021;-80
2020/12/04 01:35:18;;;;;;;6.38;3.33;;;2.80;99.90;;;;;;5062725;28;20021;-82
2020/12/04 01:37:43;;;;;;;5.68;2.97;;;2.80;99.90;;;;;;5064204;28;20017;-80
2020/12/04 01:40:09;;;;;;;7.25;3.65;;;2.80;99.90;;;;;;5062991;28;20089;-81
2020/12/04 01:42:35;;;;;;;11.07;3.45;;;2.80;99.90;;;;;;5063136;28;20023;-81
2020/12/04 01:45:01;;;;;;;4.57;2.78;;;2.80;99.90;;;;;;5063998;28;20377;-79
2020/12/04 01:47:27;;;;;;;9.07;2.97;;;2.80;99.90;;;;;;5064264;28;20035;-79
2020/12/04 01:49:53;;;;;;;5.70;2.95;;;2.80;99.90;;;;;;5064001;28;20082;-83
2020/12/04 01:52:18;;;;;;;6.45;2.90;;;2.70;99.90;;;;;;5065454;28;20466;-81
2020/12/04 01:54:47;;;;;;;6.38;2.85;;;2.70;99.90;;;;;;5066503;28;20108;-81
2020/12/04 01:57:17;;;;;;;10.13;2.55;;;2.90;99.90;;;;;;5066554;28;20051;-80
2020/12/04 01:59:43;;;;;;;6.97;3.03;;;2.70;99.90;;;;;;5066396;28;20017;-76
2020/12/04 02:02:22;;;;;;;5.13;2.95;;;2.70;99.90;;;;;;5067272;28;20025;-80
2020/12/04 02:04:49;;;;;;;7.80;3.67;;;2.70;99.90;;;;;;5066118;28;20102;-78
2020/12/04 02:07:45;;;;;;;6.90;3.92;;;2.70;99.90;;;;;;5065932;28;20231;-78
2020/12/04 02:10:18;;;;;;;3.00;2.03;;;2.70;99.90;;;;;;5066153;28;20032;-78
2020/12/04 02:12:46;;;;;;;5.13;2.75;;;2.70;99.90;;;;;;5067439;28;20365;-79
2020/12/04 02:15:12;;;;;;;8.50;3.67;;;2.70;99.90;;;;;;5066152;28;20029;-77
2020/12/04 02:17:38;;;;;;;5.82;3.60;;;2.70;99.90;;;;;;5066041;28;20041;-79
2020/12/04 02:20:04;;;;;;;9.30;3.58;;;2.70;99.90;;;;;;5066105;28;20059;-79
2020/12/04 02:22:34;;;;;;;5.45;2.70;;;2.70;99.90;;;;;;5067008;28;20140;-77
2020/12/04 02:25:00;;;;;;;6.25;4.35;;;2.70;99.90;;;;;;5065547;28;20490;-79
2020/12/04 02:27:25;;;;;;;9.70;2.95;;;2.70;99.90;;;;;;5067294;28;20028;-78
2020/12/04 02:29:51;;;;;;;8.50;3.33;;;2.70;99.90;;;;;;5065846;28;20412;-78
2020/12/04 02:32:17;;;;;;;5.93;3.25;;;2.70;99.90;;;;;;5065740;28;20092;-78
2020/12/04 02:34:42;;;;;;;6.35;3.42;;;2.70;99.90;;;;;;5066820;28;20076;-81
2020/12/04 02:37:09;;;;;;;7.68;3.00;;;2.90;99.90;;;;;;5066994;28;20033;-79
2020/12/04 02:39:35;;;;;;;5.13;2.80;;;2.70;99.90;;;;;;5065750;28;20028;-78
2020/12/04 02:42:01;;;;;;;4.63;2.65;;;2.60;99.90;;;;;;5065778;28;20017;-79
2020/12/04 02:44:27;;;;;;;5.28;2.72;;;2.60;99.90;;;;;;5066866;28;20132;-78
2020/12/04 02:46:54;;;;;;;5.60;3.08;;;2.60;99.90;;;;;;5065554;28;20017;-84
2020/12/04 02:49:22;;;;;;;4.30;2.92;;;2.60;99.90;;;;;;5066478;28;20077;-77
2020/12/04 02:51:48;;;;;;;4.40;2.50;;;2.60;99.90;;;;;;5065370;28;20024;-79
2020/12/04 02:54:18;;;;;;;7.57;3.03;;;2.60;99.90;;;;;;5066339;28;20017;-81
2020/12/04 02:56:44;;;;;;;5.80;2.60;;;2.60;99.90;;;;;;5065951;28;20020;-75
2020/12/04 02:59:10;;;;;;;5.88;2.67;;;2.60;99.90;;;;;;5066769;28;20029;-76
2020/12/04 03:01:37;;;;;;;4.95;2.50;;;2.60;99.90;;;;;;5065201;28;20079;-75
2020/12/04 03:04:03;;;;;;;6.78;3.30;;;2.60;99.90;;;;;;5064151;28;20056;-76
2020/12/04 03:06:29;;;;;;;5.93;2.78;;;2.60;99.90;;;;;;5064939;28;20140;-77
2020/12/04 03:08:55;;;;;;;7.80;3.85;;;2.60;99.90;;;;;;5065027;28;20111;-79
2020/12/04 03:11:21;;;;;;;6.22;3.28;;;2.60;99.90;;;;;;5066105;28;20028;-76
2020/12/04 03:13:47;;;;;;;6.47;3.08;;;2.60;99.90;;;;;;5066312;28;20021;-79
2020/12/04 03:16:14;;;;;;;7.57;3.05;;;2.60;99.90;;;;;;5065005;28;20080;-80
2020/12/04 03:18:40;;;;;;;8.27;3.42;;;2.60;99.90;;;;;;5066440;28;20043;-77
2020/12/04 03:21:05;;;;;;;6.45;3.10;;;2.60;99.90;;;;;;5065189;28;20021;-79
2020/12/04 03:23:31;;;;;;;7.53;3.83;;;2.60;99.90;;;;;;5066045;28;20028;-78
2020/12/04 03:25:56;;;;;;;6.43;3.05;;;2.60;99.90;;;;;;5065710;28;20037;-78
2020/12/04 03:28:22;;;;;;;6.80;2.40;;;2.60;99.90;;;;;;5064616;28;20024;-79
2020/12/04 03:30:48;;;;;;;10.55;3.65;;;2.60;99.90;;;;;;5064728;28;20043;-79
2020/12/04 03:33:13;;;;;;;10.85;4.40;;;2.60;99.90;;;;;;5064536;28;20017;-80
2020/12/04 03:35:39;;;;;;;5.93;3.67;;;2.60;99.90;;;;;;5065946;28;20044;-79
2020/12/04 03:38:04;;;;;;;7.90;3.83;;;2.60;99.90;;;;;;5065922;28;20021;-80
2020/12/04 03:40:30;;;;;;;11.35;3.42;;;2.60;99.90;;;;;;5064313;28;20051;-78
2020/12/04 03:42:56;;;;;;;11.57;3.88;;;2.60;99.90;;;;;;5065733;28;20028;-78
2020/12/04 03:45:21;;;;;;;4.28;2.22;;;2.60;99.90;;;;;;5064145;28;20033;-76
2020/12/04 03:47:48;;;;;;;8.18;3.85;;;2.50;99.90;;;;;;5064174;28;20046;-78
2020/12/04 03:50:13;;;;;;;5.85;3.83;;;2.50;99.90;;;;;;5065494;28;20025;-78
2020/12/04 03:52:39;;;;;;;3.10;2.05;;;2.50;99.90;;;;;;5064253;28;20041;-79
2020/12/04 03:55:06;;;;;;;8.90;3.97;;;2.50;99.90;;;;;;5064428;28;20017;-79
2020/12/04 03:57:31;;;;;;;8.82;3.92;;;2.50;99.90;;;;;;5064121;28;20025;-78
2020/12/04 03:59:57;;;;;;;7.90;4.20;;;2.50;99.90;;;;;;5065265;28;20429;-80
2020/12/04 04:02:22;;;;;;;7.25;3.67;;;2.50;99.90;;;;;;5065140;28;20020;-78
2020/12/04 04:04:48;;;;;;;7.22;3.58;;;2.50;99.90;;;;;;5063755;28;20021;-78
2020/12/04 04:07:13;;;;;;;7.10;3.55;;;2.50;99.90;;;;;;5063824;28;20021;-77
2020/12/04 04:09:39;;;;;;;7.45;3.35;;;2.50;99.90;;;;;;5063790;28;20453;-79
2020/12/04 04:12:05;;;;;;;7.07;3.50;;;2.40;99.90;;;;;;5065505;28;20017;-77
2020/12/04 04:14:30;;;;;;;5.85;3.08;;;2.40;99.90;;;;;;5063732;28;20028;-79
2020/12/04 04:16:56;;;;;;;4.82;2.03;;;2.40;99.90;;;;;;5063718;28;20025;-80
2020/12/04 04:19:21;;;;;;;7.72;3.28;;;2.40;99.90;;;;;;5063803;28;20132;-79
2020/12/04 04:21:47;;;;;;;11.25;3.83;;;2.40;99.90;;;;;;5063618;28;20028;-80
2020/12/04 04:24:13;;;;;;;9.90;3.97;;;2.40;99.90;;;;;;5065037;28;20455;-79
2020/12/04 04:26:38;;;;;;;7.25;4.22;;;2.40;99.90;;;;;;5063520;28;20177;-79
2020/12/04 04:29:04;;;;;;;5.93;3.50;;;2.50;99.90;;;;;;5063787;28;20059;-78
2020/12/04 04:31:30;;;;;;;10.15;3.88;;;2.40;99.90;;;;;;5063599;28;20029;-80
2020/12/04 04:33:55;;;;;;;7.97;3.78;;;2.40;99.90;;;;;;5064979;28;20043;-80
2020/12/04 04:36:21;;;;;;;7.88;4.43;;;2.40;99.90;;;;;;5063204;28;20031;-79
2020/12/04 04:38:46;;;;;;;10.85;4.50;;;2.40;99.90;;;;;;5064744;28;20051;-81
2020/12/04 04:41:14;;;;;;;6.35;3.00;;;2.30;99.90;;;;;;5063281;28;20111;-79
2020/12/04 04:43:40;;;;;;;12.90;4.15;;;2.30;99.90;;;;;;5063507;28;20025;-76
2020/12/04 04:46:31;;;;;;;7.30;3.58;;;2.30;99.90;;;;;;5064925;28;20054;-78
2020/12/04 04:49:06;;;;;;;15.77;4.10;;;2.30;99.90;;;;;;5063299;28;20032;-79
2020/12/04 04:51:32;;;;;;;6.28;2.80;;;2.30;99.90;;;;;;5063320;28;20021;-77
2020/12/04 04:54:00;;;;;;;7.70;4.15;;;2.20;99.90;;;;;;5064435;28;20090;-80
2020/12/04 04:56:25;;;;;;;6.60;2.88;;;2.20;99.90;;;;;;5063286;28;20017;-78
2020/12/04 04:58:52;;;;;;;9.02;4.30;;;2.20;99.90;;;;;;5063369;28;20044;-78
2020/12/04 05:01:18;;;;;;;5.13;2.10;;;2.30;99.90;;;;;;5064232;28;20021;-76
2020/12/04 05:04:00;;;;;;;8.50;4.28;;;2.20;99.90;;;;;;5064293;28;20037;-76
2020/12/04 05:06:37;;;;;;;15.45;5.20;;;2.20;99.90;;;;;;5063147;28;20445;-77
2020/12/04 05:09:07;;;;;;;8.63;3.40;;;2.20;99.90;;;;;;5064753;28;20369;-78
2020/12/04 05:11:34;;;;;;;4.15;2.55;;;2.30;99.90;;;;;;5064558;28;20021;-78
2020/12/04 05:14:17;;;;;;;11.43;4.03;;;2.30;99.90;;;;;;5063270;28;20417;-82
2020/12/04 05:16:46;;;;;;;6.55;2.67;;;2.30;99.90;;;;;;5063009;28;20036;-77
2020/12/04 05:19:12;;;;;;;8.43;3.33;;;2.30;99.90;;;;;;5063166;28;20021;-79
2020/12/04 05:21:38;;;;;;;8.88;5.07;;;2.30;99.90;;;;;;5064512;28;20021;-79
2020/12/04 05:24:05;;;;;;;9.18;4.38;;;2.30;99.90;;;;;;5063404;28;20093;-78
2020/12/04 05:26:36;;;;;;;5.97;3.35;;;2.30;99.90;;;;;;5065018;28;20037;-80
2020/12/04 05:29:03;;;;;;;7.05;3.55;;;2.30;99.90;;;;;;5066845;28;20082;-78
2020/12/04 05:31:31;;;;;;;5.28;3.17;;;2.30;99.90;;;;;;5066742;28;20041;-77
2020/12/04 05:33:58;;;;;;;7.20;4.22;;;2.40;99.90;;;;;;5066899;28;20564;-79
2020/12/04 05:36:29;;;;;;;9.30;4.15;;;2.40;99.90;;;;;;5068194;28;20081;-80
2020/12/04 05:38:56;;;;;;;8.50;4.65;;;2.40;99.90;;;;;;5067844;28;20066;-78
2020/12/04 05:41:23;;;;;;;8.20;4.25;;;2.40;99.90;;;;;;5066874;28;20051;-78
2020/12/04 05:43:52;;;;;;;10.57;4.25;;;2.40;99.90;;;;;;5066563;28;20048;-76
2020/12/04 05:46:25;;;;;;;9.77;4.40;;;2.40;99.90;;;;;;5067797;28;20033;-83
2020/12/04 05:49:08;;;;;;;10.00;4.97;;;2.40;99.90;;;;;;5066689;28;20017;-79
2020/12/04 05:51:39;;;;;;;4.78;2.95;;;2.40;99.90;;;;;;5068051;28;20025;-76
2020/12/04 05:54:07;;;;;;;8.18;4.28;;;2.40;99.90;;;;;;5066495;28;20037;-79
2020/12/04 05:56:34;;;;;;;4.63;2.80;;;2.50;99.90;;;;;;5067929;28;20021;-77
2020/12/04 05:59:03;;;;;;;5.72;3.40;;;2.50;99.90;;;;;;5066536;28;20088;-77
2020/12/04 06:01:29;;;;;;;7.53;2.80;;;2.50;99.90;;;;;;5066330;28;20424;-77
2020/12/04 06:03:56;;;;;;;7.38;3.47;;;2.50;99.90;;;;;;5066140;28;20045;-77
2020/12/04 06:06:26;;;;;;;8.90;4.05;;;2.50;99.90;;;;;;5067423;28;20033;-79
2020/12/04 06:09:01;;;;;;;16.77;5.55;;;2.50;99.90;;;;;;5066168;28;20028;-79
2020/12/04 06:11:32;;;;;;;8.75;5.15;;;2.50;99.90;;;;;;5067393;28;20017;-78
2020/12/04 06:13:59;;;;;;;12.10;4.00;;;2.50;99.90;;;;;;5065862;28;20017;-77
2020/12/04 06:16:25;;;;;;;7.20;2.55;;;2.50;99.90;;;;;;5067279;28;20017;-78
2020/12/04 06:18:50;;;;;;;10.10;4.22;;;2.60;99.90;;;;;;5065915;28;20472;-79
2020/12/04 06:21:49;;;;;;;9.48;3.90;;;2.60;99.90;;;;;;5065838;28;20028;-78
2020/12/04 06:24:15;;;;;;;11.95;4.80;;;2.60;99.90;;;;;;5067259;28;20017;-78
2020/12/04 06:26:59;;;;;;;11.45;3.97;;;2.60;99.90;;;;;;5065895;28;20040;-80
2020/12/04 06:29:24;;;;;;;7.65;3.85;;;2.60;99.90;;;;;;5065648;28;20868;-79
2020/12/04 06:31:50;;;;;;;8.05;4.07;;;2.70;99.90;;;;;;5067070;28;20032;-76
2020/12/04 06:34:19;;;;;;;12.15;5.00;;;2.70;99.90;;;;;;5065550;28;20052;-78
2020/12/04 06:36:45;;;;;;;10.30;5.15;;;2.70;99.90;;;;;;5065511;28;20412;-80
2020/12/04 06:39:30;;;;;;;5.82;3.13;;;2.70;99.90;;;;;;5065527;28;20162;-77
2020/12/04 06:41:57;;;;;;;11.50;4.68;;;2.70;99.90;;;;;;5065516;28;20021;-78
2020/12/04 06:44:24;;;;;;;5.72;2.33;;;2.70;99.90;;;;;;5065511;28;20070;-77
2020/12/04 06:46:56;;;;;;;9.55;4.07;;;2.70;99.90;;;;;;5066389;28;20044;-80
2020/12/04 06:49:35;;;;;;;7.38;3.80;;;2.70;99.90;;;;;;5065180;28;20438;-79
2020/12/04 06:52:04;;;;;;;15.30;4.45;;;2.70;99.90;;;;;;5065332;28;20093;-78
2020/12/04 06:54:32;;;;;;;12.32;4.85;;;2.70;99.90;;;;;;5066498;28;20043;-79
2020/12/04 06:56:59;;;;;;;17.90;6.78;;;2.70;99.90;;;;;;5066329;28;20379;-80
2020/12/04 06:59:33;;;;;;;8.02;4.70;;;2.70;99.90;;;;;;5066233;28;20032;-78
2020/12/04 07:01:59;;;;;;;;;;;2.70;99.90;;;;;;5066938;28;20028;-78
2020/12/04 07:04:27;;;;;;;6.00;3.38;;;2.80;99.90;;;;;;5067458;28;19912;-77
2020/12/04 07:06:52;;;;;;;10.25;5.45;;;2.70;99.90;;;;;;5066181;28;20036;-76
2020/12/04 07:09:18;;;;;;;8.95;4.88;;;2.70;99.90;;;;;;5068718;28;20052;-79
2020/12/04 07:11:46;;;;;;;10.43;3.95;;;2.70;99.90;;;;;;5068753;28;20024;-79
2020/12/04 07:14:21;;;;;;;7.05;4.18;;;2.70;99.90;;;;;;5067132;28;20021;-79
2020/12/04 07:16:48;;;;;;;6.25;3.00;;;2.70;99.90;;;;;;5066708;28;20027;-79
2020/12/04 07:19:14;;;;;;;8.13;5.10;;;2.70;99.90;;;;;;5070211;28;20021;-79
2020/12/04 07:21:40;;;;;;;10.77;4.35;;;2.70;99.90;;;;;;5072086;28;20023;-79
2020/12/04 07:24:06;;;;;;;7.07;3.53;;;2.70;99.90;;;;;;5065003;28;20037;-81
2020/12/04 07:26:32;;;;;;;8.32;4.55;;;2.70;99.90;;;;;;5065562;28;20032;-77
2020/12/04 07:28:58;;;;;;;6.35;3.35;;;2.70;99.90;;;;;;5068268;28;20119;-77
2020/12/04 07:31:23;;;;;;;10.45;5.05;;;2.80;99.90;;;;;;5067519;28;20042;-79
2020/12/04 07:33:50;;;;;;;10.65;4.43;;;2.80;99.90;;;;;;5066231;28;20036;-81
2020/12/04 07:36:15;;;;;;;6.63;3.28;;;2.90;99.90;;;;;;5066016;28;20044;-79
2020/12/04 07:38:56;;;;;;;8.38;4.68;;;2.80;99.90;;;;;;5066927;28;20017;-78
2020/12/04 07:41:36;;;;;;;13.32;4.45;;;2.80;99.90;;;;;;5065335;28;20025;-78
2020/12/04 07:44:05;;;;;;;5.50;3.42;;;2.80;99.90;;;;;;5064415;28;20025;-77
2020/12/04 07:46:32;;;;;;;10.95;5.50;;;2.80;99.90;;;;;;5065881;28;20045;-78
2020/12/04 07:49:02;;;;;;;8.65;4.72;;;2.80;99.90;;;;;;5064022;28;20328;-76
2020/12/04 07:51:29;;;;;;;10.43;5.00;;;2.80;99.90;;;;;;5064375;28;20075;-78
2020/12/04 07:53:58;;;;;;;11.23;4.60;;;2.90;99.90;;;;;;5065125;28;20020;-79
2020/12/04 07:56:26;;;;;;;7.78;4.57;;;2.90;99.90;;;;;;5064280;28;20025;-80
2020/12/04 07:59:04;;;;;;;16.00;4.88;;;2.90;99.90;;;;;;5064161;28;20028;-77
2020/12/04 08:01:39;;;;;;;5.10;2.85;;;2.90;99.90;;;;;;5064428;28;20025;-77
2020/12/04 08:04:05;;;;;;;12.18;5.13;;;2.90;99.90;;;;;;5065402;28;20531;-77
2020/12/04 08:06:30;;;;;;;6.47;3.00;;;2.90;99.90;;;;;;5063946;28;20040;-81
2020/12/04 08:09:12;;;;;;;8.43;4.68;;;3.00;99.90;;;;;;5063996;28;20032;-76
2020/12/04 08:11:51;;;;;;;13.32;5.55;;;3.00;99.90;;;;;;5065331;28;20028;-79
2020/12/04 08:14:24;;;;;;;12.43;4.53;;;3.00;99.90;;;;;;5064029;28;20088;-78
2020/12/04 08:16:54;;;;;;;6.78;3.35;;;3.00;99.90;;;;;;5064740;28;20032;-78
2020/12/04 08:19:25;;;;;;;6.40;3.88;;;3.10;99.90;;;;;;5063645;28;20021;-79
2020/12/04 08:22:09;;;;;;;11.68;4.43;;;3.10;99.90;;;;;;5063851;28;20413;-78
2020/12/04 08:24:50;;;;;;;11.55;5.32;;;3.10;99.90;;;;;;5063897;28;20066;-79
2020/12/04 08:27:17;;;;;;;8.60;4.78;;;3.10;99.90;;;;;;5062004;28;20036;-79
2020/12/04 08:29:46;;;;;;;11.10;5.03;;;3.10;99.90;;;;;;5064481;28;20021;-79
2020/12/04 08:32:19;;;;;;;5.72;2.65;;;3.10;99.90;;;;;;5063499;28;20028;-77
2020/12/04 08:34:47;;;;;;;9.25;3.25;;;3.20;99.90;;;;;;5063299;28;20021;-78
2020/12/04 08:37:13;;;;;;;13.10;5.70;;;3.20;99.90;;;;;;5064273;28;20032;-79
2020/12/04 08:39:45;;;;;;;9.82;4.70;;;3.10;99.90;;;;;;5062994;28;20092;-81
2020/12/04 08:42:19;;;;;;;10.73;3.88;;;3.20;99.90;;;;;;5063313;28;20088;-79
2020/12/04 08:44:59;;;;;;;6.88;4.13;;;3.20;99.90;;;;;;5063245;28;20465;-77
2020/12/04 08:47:29;;;;;;;11.77;4.60;;;3.20;99.90;;;;;;5064336;28;20134;-78
2020/12/04 08:49:55;;;;;;;11.35;4.68;;;3.20;99.90;;;;;;5063170;28;20092;-74
2020/12/04 08:52:35;;;;;;;13.73;4.88;;;3.20;99.90;;;;;;5062738;28;20032;-75
2020/12/04 08:55:09;;;;;;;7.43;4.63;;;3.30;99.90;;;;;;5063029;28;20025;-76
2020/12/04 08:57:36;;;;;;;13.98;5.22;;;3.40;99.90;;;;;;5063273;28;20077;-76
2020/12/04 09:00:02;;;;;;;12.05;5.32;;;3.40;99.90;;;;;;5064045;28;20021;-77
2020/12/04 09:02:28;;;;;;;12.57;5.57;;;3.30;99.90;;;;;;5065722;28;20119;-77
2020/12/04 09:04:54;;;;;;;12.43;4.57;;;3.30;99.90;;;;;;5067002;28;20437;-81
2020/12/04 09:07:19;;;;;;;11.13;4.57;;;3.30;99.90;;;;;;5066966;28;20021;-78
2020/12/04 09:09:45;;;;;;;11.52;4.63;;;3.40;99.90;;;;;;5067205;28;20485;-79
2020/12/04 09:12:11;;;;;;;8.52;4.32;;;3.40;99.90;;;;;;5068571;28;20029;-78
2020/12/04 09:14:37;;;;;;;11.95;4.93;;;3.40;99.90;;;;;;5068867;28;20032;-78
2020/12/04 09:17:03;;;;;;;9.95;4.20;;;3.40;99.90;;;;;;5063243;28;20025;-78
2020/12/04 09:19:28;;;;;;;6.57;4.22;;;3.50;99.90;;;;;;5048281;28;20049;-78
2020/12/04 09:21:54;;;;;;;21.13;3.88;;;3.50;99.90;;;;;;5047080;28;20031;-78
2020/12/04 09:24:19;;;;;;;13.45;5.63;;;3.60;99.90;;;;;;5047337;28;20084;-77
2020/12/04 09:26:45;;;;;;;11.43;5.47;;;3.50;99.90;;;;;;5046620;28;20056;-78
2020/12/04 09:29:11;;;;;;;12.32;5.10;;;3.60;99.90;;;;;;5046470;28;20025;-78
2020/12/04 09:31:37;;;;;;;8.27;3.90;;;3.60;99.90;;;;;;5048493;28;20030;-78
2020/12/04 09:34:02;;;;;;;7.72;3.17;;;3.60;99.90;;;;;;5046453;28;20013;-76
2020/12/04 09:36:28;;;;;;;13.77;5.85;;;3.60;99.90;;;;;;5048020;28;20557;-77
2020/12/04 09:38:53;;;;;;;9.20;5.20;;;3.70;99.90;;;;;;5046468;28;20454;-77
2020/12/04 09:41:19;;;;;;;11.60;5.00;;;3.70;99.90;;;;;;5047738;28;20105;-78
2020/12/04 09:43:44;;;;;;;11.70;5.55;;;3.70;99.90;;;;;;5046636;28;20033;-77
2020/12/04 09:46:11;;;;;;;11.07;5.32;;;3.70;99.90;;;;;;5046439;28;20033;-76
2020/12/04 09:48:37;;;;;;;12.73;5.15;;;3.80;99.90;;;;;;5047786;28;20478;-78
2020/12/04 09:51:03;;;;;;;10.63;4.53;;;3.80;99.90;;;;;;5047701;28;20049;-78
2020/12/04 09:53:29;;;;;;;8.38;3.50;;;3.80;99.90;;;;;;5046090;28;20565;-78
2020/12/04 09:55:54;;;;;;;8.70;3.60;;;3.90;99.90;;;;;;5046072;28;20022;-75
2020/12/04 09:58:20;;;;;;;14.60;4.60;;;3.90;99.90;;;;;;5046042;28;20022;-79
2020/12/04 10:00:45;;;;;;;7.95;3.45;;;3.90;99.90;;;;;;5047300;28;20100;-79
2020/12/04 10:03:11;;;;;;;8.00;3.95;;;4.00;99.90;;;;;;5045825;28;20045;-76
2020/12/04 10:05:36;;;;;;;15.75;3.55;;;4.00;99.90;;;;;;5046281;28;20068;-79
2020/12/04 10:08:02;;;;;;;10.43;4.57;;;4.00;99.90;;;;;;5046217;28;20382;-79
2020/12/04 10:10:27;;;;;;;7.53;3.95;;;4.10;99.90;;;;;;5045766;28;20024;-77
2020/12/04 10:12:53;;;;;;;7.20;4.85;;;4.10;99.90;;;;;;5047171;28;20025;-78
2020/12/04 10:15:18;;;;;;;9.98;5.20;;;4.20;99.90;;;;;;5045729;28;20035;-76
2020/12/04 10:17:44;;;;;;;9.55;4.30;;;4.30;99.90;;;;;;5045848;28;20022;-77
2020/12/04 10:20:10;;;;;;;7.70;4.07;;;4.30;99.90;;;;;;5047095;28;20057;-78
2020/12/04 10:22:35;;;;;;;8.85;3.92;;;4.40;99.90;;;;;;5045826;28;20026;-78
2020/12/04 10:25:01;;;;;;;10.00;5.05;;;4.40;99.90;;;;;;5046822;28;20559;-78
2020/12/04 10:27:26;;;;;;;10.02;4.72;;;4.50;99.90;;;;;;5044805;28;20025;-82
2020/12/04 10:29:52;;;;;;;11.60;4.57;;;4.50;99.90;;;;;;5045843;28;20032;-80
2020/12/04 10:32:19;;;;;;;8.82;3.50;;;4.60;99.90;;;;;;5045614;28;20045;-79
2020/12/04 10:34:45;;;;;;;7.75;3.85;;;4.60;99.90;;;;;;5046522;28;20020;-80
2020/12/04 10:37:12;;;;;;;8.32;4.35;;;4.60;99.90;;;;;;5044708;28;20022;-79
2020/12/04 10:39:38;;;;;;;9.15;5.38;;;4.80;99.90;;;;;;5046209;28;20036;-80
2020/12/04 10:42:04;;;;;;;19.23;5.88;;;4.70;99.90;;;;;;5044730;28;20212;-77
2020/12/04 10:44:32;;;;;;;13.77;4.80;;;4.80;99.90;;;;;;5044557;28;20539;-79
2020/12/04 10:46:59;;;;;;;14.43;4.75;;;4.90;99.90;;;;;;5045781;28;20025;-81
2020/12/04 10:49:25;;;;;;;7.47;3.42;;;4.90;99.90;;;;;;5044489;28;20021;-80
2020/12/04 10:51:55;;;;;;;8.75;4.38;;;4.90;99.90;;;;;;5044904;28;20515;-80
2020/12/04 10:54:21;;;;;;;12.20;5.32;;;4.90;99.90;;;;;;5045905;28;20087;-80
2020/12/04 10:56:47;;;;;;;6.57;4.00;;;5.00;99.90;;;;;;5044321;28;20017;-77
2020/12/04 10:59:12;;;;;;;7.65;4.20;;;5.10;99.90;;;;;;5046005;28;20026;-78
2020/12/04 11:01:43;;;;;;;8.07;3.60;;;5.20;99.90;;;;;;5045807;28;20037;-78
2020/12/04 11:06:56;;;;;;;5.97;3.67;;;5.20;99.90;;;;;;5045544;28;20035;-79
2020/12/04 11:09:22;;;;;;;13.27;4.22;;;5.30;99.90;;;;;;5044021;28;20021;-84
2020/12/04 11:11:48;;;;;;;9.77;3.92;;;5.30;99.90;;;;;;5044427;28;20043;-83
2020/12/04 11:14:13;;;;;;;8.77;3.70;;;5.40;99.90;;;;;;5044182;28;20025;-79
2020/12/04 11:16:41;;;;;;;9.88;4.65;;;5.50;99.90;;;;;;5044152;28;20069;-82
2020/12/04 11:19:07;;;;;;;8.25;3.25;;;5.60;99.90;;;;;;5044286;28;20047;-77
2020/12/04 11:21:33;;;;;;;8.25;3.85;;;5.70;99.90;;;;;;5044897;28;20024;-84
2020/12/04 11:23:58;;;;;;;5.60;2.95;;;5.90;99.90;;;;;;5043897;28;20045;-80
2020/12/04 11:26:24;;;;;;;10.77;4.15;;;6.00;99.90;;;;;;5043385;28;20140;-82
2020/12/04 11:28:50;;;;;;;8.75;3.75;;;5.90;99.90;;;;;;5043751;28;20393;-82
2020/12/04 11:31:16;;;;;;;9.05;4.22;;;5.90;99.90;;;;;;5043512;28;20032;-78
2020/12/04 11:33:42;;;;;;;7.22;3.78;;;5.90;99.90;;;;;;5045050;28;20018;-82
2020/12/04 11:36:10;;;;;;;6.60;3.30;;;6.00;99.90;;;;;;5043813;28;20377;-83
2020/12/04 11:38:36;;;;;;;8.00;3.30;;;6.00;99.90;;;;;;5050781;28;20026;-81
2020/12/04 11:41:01;;;;;;;8.98;3.70;;;6.00;99.90;;;;;;5042484;28;20541;-81
2020/12/04 11:43:27;;;;;;;8.98;4.55;;;6.10;99.90;;;;;;5043288;28;20030;-81
2020/12/04 11:45:52;;;;;;;6.55;3.08;;;6.20;99.90;;;;;;5043087;28;20037;-81
2020/12/04 11:48:18;;;;;;;6.13;3.50;;;6.10;99.90;;;;;;5043296;28;20037;-82
2020/12/04 11:50:44;;;;;;;11.65;4.13;;;6.10;99.90;;;;;;5043292;28;20029;-77
2020/12/04 11:53:09;;;;;;;7.80;3.80;;;6.30;99.90;;;;;;5043279;28;20021;-78
2020/12/04 11:55:35;;;;;;;9.60;4.50;;;6.50;99.90;;;;;;5042993;28;20096;-80
2020/12/04 11:58:00;;;;;;;7.65;3.67;;;6.70;99.90;;;;;;5042845;28;20025;-81
2020/12/04 12:00:26;;;;;;;13.65;4.57;;;6.90;99.90;;;;;;5042747;28;20025;-80
2020/12/04 12:02:52;;;;;;;7.00;3.60;;;7.00;99.90;;;;;;5042385;28;20049;-81
2020/12/04 12:05:17;;;;;;;9.57;4.20;;;7.00;99.90;;;;;;5042883;28;20044;-79
2020/12/04 12:07:43;;;;;;;5.53;3.28;;;6.90;99.90;;;;;;5044109;28;20025;-79
2020/12/04 12:10:09;;;;;;;12.23;5.45;;;6.90;99.90;;;;;;5042590;28;20048;-81
2020/12/04 12:12:35;;;;;;;11.40;4.60;;;6.90;99.90;;;;;;5042262;28;20017;-81
2020/12/04 12:15:00;;;;;;;9.15;3.95;;;6.80;99.90;;;;;;5042892;28;20032;-81
2020/12/04 12:17:26;;;;;;;6.90;3.90;;;6.80;99.90;;;;;;5042793;28;20029;-80
2020/12/04 12:19:52;;;;;;;7.50;2.65;;;6.90;99.90;;;;;;5044232;28;20051;-78
2020/12/04 12:22:17;;;;;;;8.13;4.00;;;7.10;99.90;;;;;;5042971;28;20389;-81
2020/12/04 12:24:44;;;;;;;8.77;3.00;;;6.90;99.90;;;;;;5042540;28;20028;-82
2020/12/04 12:27:10;;;;;;;13.35;4.30;;;7.00;99.90;;;;;;5044088;28;20481;-85
2020/12/04 12:29:36;;;;;;;11.20;3.88;;;7.00;99.90;;;;;;5042881;28;20018;-84
2020/12/04 12:32:05;;;;;;;6.07;3.65;;;6.90;99.90;;;;;;5042908;28;20041;-80
2020/12/04 12:37:16;;;;;;;8.18;2.55;;;6.90;99.90;;;;;;5052794;28;20032;-82
2020/12/04 12:39:42;;;;;;;7.82;3.35;;;6.80;99.90;;;;;;5051979;28;20081;-81
2020/12/04 12:42:10;;;;;;;11.75;4.53;;;6.80;99.90;;;;;;5051418;28;20013;-80
2020/12/04 12:44:36;;;;;;;8.35;2.85;;;6.80;99.90;;;;;;5059058;28;20035;-79
2020/12/04 12:47:03;;;;;;;8.82;4.05;;;6.70;99.90;;;;;;5051291;28;20041;-79
2020/12/04 12:49:30;;;;;;;5.28;2.70;;;6.70;99.90;;;;;;5052190;28;20036;-78
2020/12/04 12:51:57;;;;;;;7.38;3.65;;;6.70;99.90;;;;;;5051567;28;20169;-77
2020/12/04 12:54:24;;;;;;;8.23;3.58;;;6.70;99.90;;;;;;5051549;28;20028;-79
2020/12/04 12:56:50;;;;;;;8.57;3.67;;;6.70;99.90;;;;;;5051763;28;20025;-78
2020/12/04 12:59:15;;;;;;;6.47;3.25;;;6.80;99.90;;;;;;5052601;28;20056;-80
2020/12/04 13:01:41;;;;;;;8.20;4.05;;;6.80;99.90;;;;;;5052353;28;20033;-80